< < Back
Terminal Aerodrome Forecast


Current Version              Previous Versions:   1  2  3  4  5  6  7  8  9  

Terminal Aerodrome Forecast

433
FTUS42 KCAE 301300 AAA
TAFCAE
TAF AMD
KCAE 301357Z 3014/3112 32014G23KT P6SM SKC
     FM310000 34006KT P6SM SKC
     FM310400 VRB04KT P6SM SKC=



Latest METAR

231
SAUS80 KWBC 302300 RRA
MTRCAE
METAR KCAE 302256Z 34006KT 10SM CLR 10/M08 A3022 RMK AO2 SLP232
T01001078


USA.gov is the U.S. government's official web portal to all federal, state and local government web resources and services.